sensor_id;sensor_type;location;lat;lon;timestamp;pressure;altitude;pressure_sealevel;temperature;humidity
24440;BME280;12618;54.386;18.394;2022-09-13T00:01:41;99513.20;;;10.89;95.54
24440;BME280;12618;54.386;18.394;2022-09-13T00:04:11;99512.19;;;10.83;95.76
24440;BME280;12618;54.386;18.394;2022-09-13T00:06:42;99509.88;;;10.77;96.36
24440;BME280;12618;54.386;18.394;2022-09-13T00:09:13;99510.80;;;10.76;98.15
24440;BME280;12618;54.386;18.394;2022-09-13T00:11:43;99509.41;;;10.78;97.70
24440;BME280;12618;54.386;18.394;2022-09-13T00:14:16;99500.25;;;10.76;97.84
24440;BME280;12618;54.386;18.394;2022-09-13T00:16:46;99496.28;;;10.76;98.68
24440;BME280;12618;54.386;18.394;2022-09-13T00:19:17;99495.89;;;10.75;97.00
24440;BME280;12618;54.386;18.394;2022-09-13T00:21:48;99495.20;;;10.63;95.40
24440;BME280;12618;54.386;18.394;2022-09-13T00:24:19;99490.87;;;10.45;95.98
24440;BME280;12618;54.386;18.394;2022-09-13T00:26:49;99488.24;;;10.45;97.13
24440;BME280;12618;54.386;18.394;2022-09-13T00:29:20;99485.60;;;10.45;97.08
24440;BME280;12618;54.386;18.394;2022-09-13T00:31:51;99481.65;;;10.45;97.60
24440;BME280;12618;54.386;18.394;2022-09-13T00:34:21;99481.19;;;10.45;96.84
24440;BME280;12618;54.386;18.394;2022-09-13T00:36:52;99479.55;;;10.43;96.60
24440;BME280;12618;54.386;18.394;2022-09-13T00:39:23;99479.55;;;10.43;96.14
24440;BME280;12618;54.386;18.394;2022-09-13T00:41:54;99481.94;;;10.39;95.56
24440;BME280;12618;54.386;18.394;2022-09-13T00:44:54;99483.27;;;10.39;96.32
24440;BME280;12618;54.386;18.394;2022-09-13T00:47:35;99475.52;;;10.36;95.44
24440;BME280;12618;54.386;18.394;2022-09-13T00:50:24;99479.63;;;10.24;95.13
24440;BME280;12618;54.386;18.394;2022-09-13T00:53:07;99473.76;;;10.17;96.09
24440;BME280;12618;54.386;18.394;2022-09-13T00:55:50;99468.48;;;10.17;96.23
24440;BME280;12618;54.386;18.394;2022-09-13T00:58:31;99472.22;;;10.13;96.02
24440;BME280;12618;54.386;18.394;2022-09-13T01:00:59;99467.55;;;10.01;97.99
24440;BME280;12618;54.386;18.394;2022-09-13T01:03:34;99462.56;;;9.95;98.41
24440;BME280;12618;54.386;18.394;2022-09-13T01:06:11;99462.95;;;9.96;98.90
24440;BME280;12618;54.386;18.394;2022-09-13T01:08:45;99453.05;;;9.93;99.80
24440;BME280;12618;54.386;18.394;2022-09-13T01:11:47;99453.13;;;9.91;100.00
24440;BME280;12618;54.386;18.394;2022-09-13T01:14:21;99444.68;;;9.93;100.00
24440;BME280;12618;54.386;18.394;2022-09-13T01:16:53;99447.31;;;9.93;100.00
24440;BME280;12618;54.386;18.394;2022-09-13T01:19:24;99447.39;;;10.00;100.00
24440;BME280;12618;54.386;18.394;2022-09-13T01:22:27;99444.22;;;9.94;99.65
24440;BME280;12618;54.386;18.394;2022-09-13T01:25:07;99444.97;;;9.87;100.00
24440;BME280;12618;54.386;18.394;2022-09-13T01:30:46;99439.02;;;9.92;99.13
24440;BME280;12618;54.386;18.394;2022-09-13T01:36:20;99430.08;;;9.86;98.12
24440;BME280;12618;54.386;18.394;2022-09-13T01:39:04;99432.64;;;9.79;98.58
24440;BME280;12618;54.386;18.394;2022-09-13T01:44:43;99432.92;;;9.73;100.00
24440;BME280;12618;54.386;18.394;2022-09-13T01:55:49;99429.22;;;9.77;100.00
24440;BME280;12618;54.386;18.394;2022-09-13T01:58:40;99422.37;;;9.73;100.00
24440;BME280;12618;54.386;18.394;2022-09-13T02:01:20;99429.75;;;9.83;100.00
24440;BME280;12618;54.386;18.394;2022-09-13T02:04:06;99435.34;;;9.86;100.00
24440;BME280;12618;54.386;18.394;2022-09-13T02:06:41;99426.12;;;9.86;100.00
24440;BME280;12618;54.386;18.394;2022-09-13T02:09:22;99432.18;;;9.88;100.00
24440;BME280;12618;54.386;18.394;2022-09-13T02:11:53;99422.63;;;9.85;100.00
24440;BME280;12618;54.386;18.394;2022-09-13T02:14:27;99425.12;;;9.80;100.00
24440;BME280;12618;54.386;18.394;2022-09-13T02:17:03;99415.44;;;9.80;100.00
24440;BME280;12618;54.386;18.394;2022-09-13T02:19:57;99414.58;;;9.80;100.00
24440;BME280;12618;54.386;18.394;2022-09-13T02:22:35;99405.03;;;9.77;100.00
24440;BME280;12618;54.386;18.394;2022-09-13T02:25:09;99405.81;;;9.71;99.59
24440;BME280;12618;54.386;18.394;2022-09-13T02:27:44;99400.16;;;9.70;99.85
24440;BME280;12618;54.386;18.394;2022-09-13T02:30:16;99397.13;;;9.69;99.28
24440;BME280;12618;54.386;18.394;2022-09-13T02:32:57;99399.91;;;9.66;98.90
24440;BME280;12618;54.386;18.394;2022-09-13T02:36:20;99388.26;;;9.61;98.48
24440;BME280;12618;54.386;18.394;2022-09-13T02:38:25;99377.50;;;9.48;98.62
24440;BME280;12618;54.386;18.394;2022-09-13T02:41:08;99376.53;;;9.41;98.90
24440;BME280;12618;54.386;18.394;2022-09-13T02:43:45;99375.34;;;9.29;98.84
24440;BME280;12618;54.386;18.394;2022-09-13T02:46:42;99364.97;;;9.26;100.00
24440;BME280;12618;54.386;18.394;2022-09-13T02:57:30;99337.20;;;9.19;99.00
24440;BME280;12618;54.386;18.394;2022-09-13T03:00:02;99325.89;;;9.17;99.04
24440;BME280;12618;54.386;18.394;2022-09-13T03:02:33;99325.83;;;9.19;99.52
24440;BME280;12618;54.386;18.394;2022-09-13T03:05:06;99323.36;;;9.16;98.47
24440;BME280;12618;54.386;18.394;2022-09-13T03:07:36;99321.86;;;9.10;98.88
24440;BME280;12618;54.386;18.394;2022-09-13T03:10:10;99323.11;;;9.11;99.15
24440;BME280;12618;54.386;18.394;2022-09-13T03:13:00;99316.73;;;9.07;98.57
24440;BME280;12618;54.386;18.394;2022-09-13T03:18:51;99308.61;;;9.03;99.55
24440;BME280;12618;54.386;18.394;2022-09-13T03:21:35;99306.52;;;9.01;98.89
24440;BME280;12618;54.386;18.394;2022-09-13T03:27:05;99298.62;;;9.01;99.32
24440;BME280;12618;54.386;18.394;2022-09-13T03:29:50;99300.47;;;8.99;99.21
24440;BME280;12618;54.386;18.394;2022-09-13T03:32:28;99297.58;;;8.95;99.23
24440;BME280;12618;54.386;18.394;2022-09-13T03:35:21;99299.59;;;8.90;98.63
24440;BME280;12618;54.386;18.394;2022-09-13T03:40:58;99303.74;;;8.85;99.53
24440;BME280;12618;54.386;18.394;2022-09-13T03:43:31;99293.22;;;8.85;99.14
24440;BME280;12618;54.386;18.394;2022-09-13T03:46:20;99293.55;;;8.88;99.46
24440;BME280;12618;54.386;18.394;2022-09-13T03:48:48;99291.84;;;8.87;100.00
24440;BME280;12618;54.386;18.394;2022-09-13T03:51:21;99290.52;;;8.87;99.22
24440;BME280;12618;54.386;18.394;2022-09-13T03:53:55;99295.64;;;8.90;99.15
24440;BME280;12618;54.386;18.394;2022-09-13T03:56:27;99293.15;;;8.87;99.39
24440;BME280;12618;54.386;18.394;2022-09-13T03:58:57;99288.41;;;8.85;100.00
24440;BME280;12618;54.386;18.394;2022-09-13T04:01:28;99283.85;;;8.80;100.00
24440;BME280;12618;54.386;18.394;2022-09-13T04:04:00;99270.35;;;8.68;100.00
24440;BME280;12618;54.386;18.394;2022-09-13T04:06:31;99273.77;;;8.70;100.00
24440;BME280;12618;54.386;18.394;2022-09-13T04:09:02;99275.17;;;8.78;100.00
24440;BME280;12618;54.386;18.394;2022-09-13T04:11:33;99268.98;;;8.79;100.00
24440;BME280;12618;54.386;18.394;2022-09-13T04:14:04;99259.39;;;8.78;100.00
24440;BME280;12618;54.386;18.394;2022-09-13T04:16:34;99268.68;;;8.85;100.00
24440;BME280;12618;54.386;18.394;2022-09-13T04:19:05;99264.98;;;8.89;100.00
24440;BME280;12618;54.386;18.394;2022-09-13T04:21:36;99256.95;;;8.92;100.00
24440;BME280;12618;54.386;18.394;2022-09-13T04:24:07;99255.11;;;8.94;100.00
24440;BME280;12618;54.386;18.394;2022-09-13T04:26:40;99241.23;;;8.90;100.00
24440;BME280;12618;54.386;18.394;2022-09-13T04:29:10;99252.95;;;9.02;100.00
24440;BME280;12618;54.386;18.394;2022-09-13T04:31:41;99250.53;;;9.06;100.00
24440;BME280;12618;54.386;18.394;2022-09-13T04:34:12;99246.77;;;9.11;100.00
24440;BME280;12618;54.386;18.394;2022-09-13T04:36:44;99245.59;;;9.17;100.00
24440;BME280;12618;54.386;18.394;2022-09-13T04:39:15;99240.89;;;9.24;100.00
24440;BME280;12618;54.386;18.394;2022-09-13T04:41:50;99238.27;;;9.32;100.00
24440;BME280;12618;54.386;18.394;2022-09-13T04:44:22;99226.87;;;9.40;100.00
24440;BME280;12618;54.386;18.394;2022-09-13T04:46:53;99226.42;;;9.49;100.00
24440;BME280;12618;54.386;18.394;2022-09-13T04:49:25;99229.13;;;9.57;100.00
24440;BME280;12618;54.386;18.394;2022-09-13T04:51:56;99227.01;;;9.63;100.00
24440;BME280;12618;54.386;18.394;2022-09-13T04:54:27;99226.78;;;9.68;100.00
24440;BME280;12618;54.386;18.394;2022-09-13T04:56:58;99221.18;;;9.74;100.00
24440;BME280;12618;54.386;18.394;2022-09-13T04:59:29;99227.47;;;9.80;100.00
24440;BME280;12618;54.386;18.394;2022-09-13T05:01:59;99222.17;;;9.89;100.00
24440;BME280;12618;54.386;18.394;2022-09-13T05:04:30;99225.09;;;10.00;100.00
24440;BME280;12618;54.386;18.394;2022-09-13T05:07:02;99226.38;;;10.08;100.00
24440;BME280;12618;54.386;18.394;2022-09-13T05:09:32;99226.81;;;10.16;100.00
24440;BME280;12618;54.386;18.394;2022-09-13T05:12:04;99219.31;;;10.26;100.00
24440;BME280;12618;54.386;18.394;2022-09-13T05:14:35;99213.69;;;10.32;100.00
24440;BME280;12618;54.386;18.394;2022-09-13T05:17:06;99218.07;;;10.40;100.00
24440;BME280;12618;54.386;18.394;2022-09-13T05:19:37;99216.16;;;10.51;100.00
24440;BME280;12618;54.386;18.394;2022-09-13T05:22:08;99207.84;;;10.58;100.00
24440;BME280;12618;54.386;18.394;2022-09-13T05:24:39;99211.19;;;10.69;100.00
24440;BME280;12618;54.386;18.394;2022-09-13T05:27:10;99207.17;;;10.78;100.00
24440;BME280;12618;54.386;18.394;2022-09-13T05:29:41;99204.09;;;10.85;100.00
24440;BME280;12618;54.386;18.394;2022-09-13T05:32:12;99200.35;;;10.89;100.00
24440;BME280;12618;54.386;18.394;2022-09-13T05:34:47;99195.09;;;10.97;100.00
24440;BME280;12618;54.386;18.394;2022-09-13T05:37:18;99198.25;;;11.03;100.00
24440;BME280;12618;54.386;18.394;2022-09-13T05:39:49;99193.06;;;11.09;100.00
24440;BME280;12618;54.386;18.394;2022-09-13T05:42:19;99185.92;;;11.18;100.00
24440;BME280;12618;54.386;18.394;2022-09-13T05:44:50;99185.49;;;11.25;100.00
24440;BME280;12618;54.386;18.394;2022-09-13T05:47:22;99190.02;;;11.30;100.00
24440;BME280;12618;54.386;18.394;2022-09-13T05:49:53;99195.13;;;11.41;100.00
24440;BME280;12618;54.386;18.394;2022-09-13T05:52:23;99185.45;;;11.48;100.00
24440;BME280;12618;54.386;18.394;2022-09-13T05:54:55;99194.31;;;11.54;100.00
24440;BME280;12618;54.386;18.394;2022-09-13T05:57:26;99190.17;;;11.57;100.00
24440;BME280;12618;54.386;18.394;2022-09-13T05:59:56;99195.25;;;11.60;100.00
24440;BME280;12618;54.386;18.394;2022-09-13T06:02:27;99183.77;;;11.68;100.00
24440;BME280;12618;54.386;18.394;2022-09-13T06:05:00;99178.33;;;11.79;100.00
24440;BME280;12618;54.386;18.394;2022-09-13T06:07:30;99182.78;;;11.92;100.00
24440;BME280;12618;54.386;18.394;2022-09-13T06:10:02;99169.36;;;12.02;100.00
24440;BME280;12618;54.386;18.394;2022-09-13T06:12:34;99169.80;;;12.16;100.00
24440;BME280;12618;54.386;18.394;2022-09-13T06:15:06;99168.45;;;12.30;100.00
24440;BME280;12618;54.386;18.394;2022-09-13T06:17:41;99164.84;;;12.46;100.00
24440;BME280;12618;54.386;18.394;2022-09-13T06:20:11;99163.84;;;12.61;100.00
24440;BME280;12618;54.386;18.394;2022-09-13T06:22:43;99160.02;;;12.79;100.00
24440;BME280;12618;54.386;18.394;2022-09-13T06:25:14;99160.31;;;12.94;100.00
24440;BME280;12618;54.386;18.394;2022-09-13T06:27:45;99154.77;;;13.04;100.00
24440;BME280;12618;54.386;18.394;2022-09-13T06:30:17;99160.98;;;13.18;100.00
24440;BME280;12618;54.386;18.394;2022-09-13T06:32:49;99155.06;;;13.27;100.00
24440;BME280;12618;54.386;18.394;2022-09-13T06:35:19;99153.48;;;13.37;100.00
24440;BME280;12618;54.386;18.394;2022-09-13T06:37:50;99147.95;;;13.47;99.29
24440;BME280;12618;54.386;18.394;2022-09-13T06:40:24;99143.64;;;13.52;100.00
24440;BME280;12618;54.386;18.394;2022-09-13T06:42:55;99145.75;;;13.59;99.69
24440;BME280;12618;54.386;18.394;2022-09-13T06:45:25;99145.41;;;13.58;99.28
24440;BME280;12618;54.386;18.394;2022-09-13T06:47:56;99148.41;;;13.59;97.97
24440;BME280;12618;54.386;18.394;2022-09-13T06:50:27;99143.38;;;13.62;98.60
24440;BME280;12618;54.386;18.394;2022-09-13T06:52:57;99142.02;;;13.56;98.49
24440;BME280;12618;54.386;18.394;2022-09-13T06:55:28;99146.13;;;13.60;98.70
24440;BME280;12618;54.386;18.394;2022-09-13T06:57:59;99143.44;;;13.67;99.58
24440;BME280;12618;54.386;18.394;2022-09-13T07:00:29;99134.53;;;13.68;98.09
24440;BME280;12618;54.386;18.394;2022-09-13T07:03:00;99139.19;;;13.77;98.16
24440;BME280;12618;54.386;18.394;2022-09-13T07:05:32;99136.16;;;13.89;96.38
24440;BME280;12618;54.386;18.394;2022-09-13T07:08:02;99128.77;;;14.00;96.75
24440;BME280;12618;54.386;18.394;2022-09-13T07:10:33;99130.63;;;14.23;97.07
24440;BME280;12618;54.386;18.394;2022-09-13T07:13:04;99131.28;;;14.32;94.66
24440;BME280;12618;54.386;18.394;2022-09-13T07:15:40;99133.45;;;14.45;96.02
24440;BME280;12618;54.386;18.394;2022-09-13T07:18:11;99128.80;;;14.54;93.83
24440;BME280;12618;54.386;18.394;2022-09-13T07:20:42;99128.48;;;14.65;95.28
24440;BME280;12618;54.386;18.394;2022-09-13T07:23:13;99128.48;;;14.65;93.96
24440;BME280;12618;54.386;18.394;2022-09-13T07:25:52;99128.81;;;14.60;90.08
24440;BME280;12618;54.386;18.394;2022-09-13T07:28:18;99124.61;;;14.87;94.53
24440;BME280;12618;54.386;18.394;2022-09-13T07:30:49;99122.39;;;15.10;93.05
24440;BME280;12618;54.386;18.394;2022-09-13T07:33:20;99127.48;;;15.24;89.69
24440;BME280;12618;54.386;18.394;2022-09-13T07:35:55;99116.18;;;15.34;92.05
24440;BME280;12618;54.386;18.394;2022-09-13T07:38:26;99116.23;;;15.15;88.92
24440;BME280;12618;54.386;18.394;2022-09-13T07:40:57;99115.61;;;15.06;88.94
24440;BME280;12618;54.386;18.394;2022-09-13T07:43:29;99116.20;;;15.04;89.01
24440;BME280;12618;54.386;18.394;2022-09-13T07:46:05;99115.78;;;15.21;91.93
24440;BME280;12618;54.386;18.394;2022-09-13T07:48:38;99109.98;;;15.22;92.21
24440;BME280;12618;54.386;18.394;2022-09-13T07:51:14;99104.34;;;15.49;92.92
24440;BME280;12618;54.386;18.394;2022-09-13T07:53:46;99096.06;;;15.64;89.97
24440;BME280;12618;54.386;18.394;2022-09-13T07:56:20;99093.52;;;15.74;90.97
24440;BME280;12618;54.386;18.394;2022-09-13T07:58:51;99084.44;;;15.82;91.47
24440;BME280;12618;54.386;18.394;2022-09-13T08:04:13;99076.82;;;15.83;90.98
24440;BME280;12618;54.386;18.394;2022-09-13T08:06:41;99078.28;;;15.76;90.69
24440;BME280;12618;54.386;18.394;2022-09-13T08:09:13;99077.06;;;15.69;91.98
24440;BME280;12618;54.386;18.394;2022-09-13T08:11:49;99078.75;;;15.59;92.33
24440;BME280;12618;54.386;18.394;2022-09-13T08:14:22;99072.31;;;15.50;92.98
24440;BME280;12618;54.386;18.394;2022-09-13T08:16:55;99077.02;;;15.47;93.33
24440;BME280;12618;54.386;18.394;2022-09-13T08:19:26;99064.71;;;15.46;93.83
24440;BME280;12618;54.386;18.394;2022-09-13T08:21:58;99059.86;;;15.51;93.90
24440;BME280;12618;54.386;18.394;2022-09-13T08:24:29;99053.81;;;15.49;94.01
24440;BME280;12618;54.386;18.394;2022-09-13T08:26:59;99045.73;;;15.45;94.35
24440;BME280;12618;54.386;18.394;2022-09-13T08:29:30;99046.70;;;15.44;95.41
24440;BME280;12618;54.386;18.394;2022-09-13T08:32:01;99044.86;;;15.39;95.14
24440;BME280;12618;54.386;18.394;2022-09-13T08:34:32;99029.14;;;15.36;95.58
24440;BME280;12618;54.386;18.394;2022-09-13T08:37:03;99035.56;;;15.39;95.92
24440;BME280;12618;54.386;18.394;2022-09-13T08:39:33;99034.61;;;15.34;96.77
24440;BME280;12618;54.386;18.394;2022-09-13T08:42:20;99028.18;;;15.37;96.72
24440;BME280;12618;54.386;18.394;2022-09-13T08:44:49;99027.09;;;15.39;97.03
24440;BME280;12618;54.386;18.394;2022-09-13T08:50:32;99022.86;;;15.48;97.60
24440;BME280;12618;54.386;18.394;2022-09-13T08:56:05;99012.72;;;15.53;97.39
24440;BME280;12618;54.386;18.394;2022-09-13T09:07:17;99026.14;;;16.01;96.72
24440;BME280;12618;54.386;18.394;2022-09-13T09:09:51;99031.31;;;16.09;96.49
24440;BME280;12618;54.386;18.394;2022-09-13T09:12:47;99036.99;;;16.04;96.08
24440;BME280;12618;54.386;18.394;2022-09-13T09:18:13;99006.66;;;16.01;95.82
24440;BME280;12618;54.386;18.394;2022-09-13T09:20:46;99021.88;;;16.05;95.86
24440;BME280;12618;54.386;18.394;2022-09-13T09:23:21;99019.60;;;16.00;96.29
24440;BME280;12618;54.386;18.394;2022-09-13T09:25:59;99022.62;;;15.95;97.30
24440;BME280;12618;54.386;18.394;2022-09-13T09:28:27;99020.34;;;15.85;96.21
24440;BME280;12618;54.386;18.394;2022-09-13T09:31:03;99016.95;;;15.83;96.52
24440;BME280;12618;54.386;18.394;2022-09-13T09:33:55;99012.72;;;15.81;96.77
24440;BME280;12618;54.386;18.394;2022-09-13T09:36:43;99010.92;;;15.70;97.74
24440;BME280;12618;54.386;18.394;2022-09-13T09:39:14;99008.89;;;15.68;100.00
24440;BME280;12618;54.386;18.394;2022-09-13T09:41:46;99002.57;;;15.69;99.74
24440;BME280;12618;54.386;18.394;2022-09-13T09:44:21;99000.04;;;15.73;100.00
24440;BME280;12618;54.386;18.394;2022-09-13T09:46:58;98995.59;;;15.68;100.00
24440;BME280;12618;54.386;18.394;2022-09-13T09:49:38;98984.94;;;15.62;100.00
24440;BME280;12618;54.386;18.394;2022-09-13T09:52:43;98981.78;;;15.52;100.00
24440;BME280;12618;54.386;18.394;2022-09-13T09:55:24;98983.94;;;15.47;100.00
24440;BME280;12618;54.386;18.394;2022-09-13T09:58:00;98975.36;;;15.49;100.00
24440;BME280;12618;54.386;18.394;2022-09-13T10:00:39;98963.89;;;15.54;100.00
24440;BME280;12618;54.386;18.394;2022-09-13T10:03:18;98961.70;;;15.70;100.00
24440;BME280;12618;54.386;18.394;2022-09-13T10:05:46;98941.39;;;15.69;100.00
24440;BME280;12618;54.386;18.394;2022-09-13T10:08:24;98942.33;;;15.90;100.00
24440;BME280;12618;54.386;18.394;2022-09-13T10:10:56;98936.01;;;15.97;100.00
24440;BME280;12618;54.386;18.394;2022-09-13T10:13:29;98933.19;;;16.04;100.00
24440;BME280;12618;54.386;18.394;2022-09-13T10:16:02;98935.24;;;16.12;100.00
24440;BME280;12618;54.386;18.394;2022-09-13T10:18:34;98940.77;;;16.20;100.00
24440;BME280;12618;54.386;18.394;2022-09-13T10:23:49;98936.86;;;16.50;100.00
24440;BME280;12618;54.386;18.394;2022-09-13T10:26:22;98932.27;;;16.73;100.00
24440;BME280;12618;54.386;18.394;2022-09-13T10:31:38;98918.63;;;16.87;99.57
24440;BME280;12618;54.386;18.394;2022-09-13T10:34:18;98912.62;;;16.95;99.60
24440;BME280;12618;54.386;18.394;2022-09-13T10:37:10;98912.00;;;16.97;99.03
24440;BME280;12618;54.386;18.394;2022-09-13T10:39:35;98887.30;;;16.95;98.31
24440;BME280;12618;54.386;18.394;2022-09-13T10:42:08;98887.75;;;17.00;97.56
24440;BME280;12618;54.386;18.394;2022-09-13T10:47:43;98886.74;;;17.31;97.78
24440;BME280;12618;54.386;18.394;2022-09-13T10:50:28;98882.41;;;17.40;96.51
24440;BME280;12618;54.386;18.394;2022-09-13T10:53:01;98882.98;;;17.43;94.41
24440;BME280;12618;54.386;18.394;2022-09-13T10:55:36;98881.20;;;17.38;94.56
24440;BME280;12618;54.386;18.394;2022-09-13T10:58:11;98877.20;;;17.38;94.82
24440;BME280;12618;54.386;18.394;2022-09-13T11:04:03;98869.20;;;17.38;92.71
24440;BME280;12618;54.386;18.394;2022-09-13T11:09:18;98862.92;;;17.59;95.12
24440;BME280;12618;54.386;18.394;2022-09-13T11:11:58;98866.06;;;17.64;93.67
24440;BME280;12618;54.386;18.394;2022-09-13T11:20:08;98862.69;;;17.71;93.25
24440;BME280;12618;54.386;18.394;2022-09-13T11:28:35;98868.34;;;17.97;92.73
24440;BME280;12618;54.386;18.394;2022-09-13T11:40:02;98838.25;;;18.47;86.49
24440;BME280;12618;54.386;18.394;2022-09-13T11:43:03;98834.10;;;18.49;85.61
24440;BME280;12618;54.386;18.394;2022-09-13T11:45:42;98828.22;;;18.36;85.20
24440;BME280;12618;54.386;18.394;2022-09-13T11:48:41;98830.89;;;18.36;86.85
24440;BME280;12618;54.386;18.394;2022-09-13T11:54:39;98794.69;;;18.04;85.85
24440;BME280;12618;54.386;18.394;2022-09-13T11:57:10;98812.13;;;18.08;86.71
24440;BME280;12618;54.386;18.394;2022-09-13T11:59:44;98810.98;;;18.01;86.26
24440;BME280;12618;54.386;18.394;2022-09-13T12:05:20;98807.82;;;18.02;87.15
24440;BME280;12618;54.386;18.394;2022-09-13T12:07:55;98788.80;;;17.91;87.67
24440;BME280;12618;54.386;18.394;2022-09-13T12:10:29;98810.86;;;17.93;87.60
24440;BME280;12618;54.386;18.394;2022-09-13T12:13:02;98818.82;;;17.89;86.44
24440;BME280;12618;54.386;18.394;2022-09-13T12:15:41;98805.39;;;17.85;87.41
24440;BME280;12618;54.386;18.394;2022-09-13T12:23:42;98777.89;;;17.60;85.28
24440;BME280;12618;54.386;18.394;2022-09-13T12:26:27;98786.02;;;17.64;87.11
24440;BME280;12618;54.386;18.394;2022-09-13T12:31:45;98784.20;;;17.30;90.00
24440;BME280;12618;54.386;18.394;2022-09-13T12:34:24;98777.03;;;17.21;90.67
24440;BME280;12618;54.386;18.394;2022-09-13T12:37:04;98778.70;;;17.12;92.20
24440;BME280;12618;54.386;18.394;2022-09-13T12:39:36;98768.55;;;16.96;94.18
24440;BME280;12618;54.386;18.394;2022-09-13T12:48:16;98754.25;;;16.72;98.16
24440;BME280;12618;54.386;18.394;2022-09-13T12:50:59;98754.80;;;16.66;97.66
24440;BME280;12618;54.386;18.394;2022-09-13T13:02:00;98758.75;;;16.82;100.00
24440;BME280;12618;54.386;18.394;2022-09-13T13:04:34;98758.23;;;16.88;100.00
24440;BME280;12618;54.386;18.394;2022-09-13T13:07:17;98753.05;;;16.96;100.00
24440;BME280;12618;54.386;18.394;2022-09-13T13:09:46;98752.80;;;17.08;100.00
24440;BME280;12618;54.386;18.394;2022-09-13T13:12:32;98742.06;;;17.14;100.00
24440;BME280;12618;54.386;18.394;2022-09-13T13:17:56;98742.41;;;17.15;100.00
24440;BME280;12618;54.386;18.394;2022-09-13T13:34:09;98716.28;;;17.34;99.06
24440;BME280;12618;54.386;18.394;2022-09-13T13:36:45;98707.21;;;17.40;98.61
24440;BME280;12618;54.386;18.394;2022-09-13T13:42:01;98700.05;;;17.51;97.20
24440;BME280;12618;54.386;18.394;2022-09-13T13:52:50;98683.61;;;17.45;96.25
24440;BME280;12618;54.386;18.394;2022-09-13T13:55:46;98683.29;;;17.44;96.51
24440;BME280;12618;54.386;18.394;2022-09-13T13:58:36;98677.52;;;17.39;97.18
24440;BME280;12618;54.386;18.394;2022-09-13T14:01:02;98682.98;;;17.47;96.91
24440;BME280;12618;54.386;18.394;2022-09-13T14:06:21;98672.54;;;17.40;98.85
24440;BME280;12618;54.386;18.394;2022-09-13T14:09:22;98674.47;;;17.58;98.22
24440;BME280;12618;54.386;18.394;2022-09-13T14:20:20;98650.11;;;17.57;96.91
24440;BME280;12618;54.386;18.394;2022-09-13T14:23:15;98650.11;;;17.57;96.91
24440;BME280;12618;54.386;18.394;2022-09-13T14:25:45;98656.96;;;17.65;96.29
24440;BME280;12618;54.386;18.394;2022-09-13T14:28:20;98653.59;;;17.63;96.61
24440;BME280;12618;54.386;18.394;2022-09-13T14:30:55;98649.09;;;17.63;95.87
24440;BME280;12618;54.386;18.394;2022-09-13T14:36:15;98640.50;;;17.60;96.05
24440;BME280;12618;54.386;18.394;2022-09-13T14:38:57;98640.63;;;17.58;96.02
24440;BME280;12618;54.386;18.394;2022-09-13T14:41:35;98633.08;;;17.54;96.25
24440;BME280;12618;54.386;18.394;2022-09-13T14:44:23;98641.36;;;17.51;95.97
24440;BME280;12618;54.386;18.394;2022-09-13T14:49:54;98641.04;;;17.30;97.50
24440;BME280;12618;54.386;18.394;2022-09-13T14:55:06;98633.95;;;17.16;99.20
24440;BME280;12618;54.386;18.394;2022-09-13T14:57:36;98642.22;;;17.03;100.00
24440;BME280;12618;54.386;18.394;2022-09-13T15:00:19;98644.22;;;17.01;100.00
24440;BME280;12618;54.386;18.394;2022-09-13T15:02:54;98639.16;;;16.88;100.00
24440;BME280;12618;54.386;18.394;2022-09-13T15:05:28;98649.86;;;16.83;100.00
24440;BME280;12618;54.386;18.394;2022-09-13T15:07:59;98647.67;;;16.72;100.00
24440;BME280;12618;54.386;18.394;2022-09-13T15:10:32;98647.67;;;16.72;100.00
24440;BME280;12618;54.386;18.394;2022-09-13T15:15:39;98647.53;;;16.64;100.00
24440;BME280;12618;54.386;18.394;2022-09-13T15:20:58;98651.87;;;16.50;100.00
24440;BME280;12618;54.386;18.394;2022-09-13T15:23:33;98638.05;;;16.41;100.00
24440;BME280;12618;54.386;18.394;2022-09-13T15:28:51;98637.02;;;16.23;100.00
24440;BME280;12618;54.386;18.394;2022-09-13T15:31:24;98640.20;;;16.17;100.00
24440;BME280;12618;54.386;18.394;2022-09-13T15:39:47;98639.71;;;16.02;100.00
24440;BME280;12618;54.386;18.394;2022-09-13T15:42:18;98637.12;;;15.96;100.00
24440;BME280;12618;54.386;18.394;2022-09-13T15:44:49;98638.58;;;15.95;100.00
24440;BME280;12618;54.386;18.394;2022-09-13T15:47:20;98636.76;;;15.95;100.00
24440;BME280;12618;54.386;18.394;2022-09-13T15:49:51;98636.14;;;15.97;100.00
24440;BME280;12618;54.386;18.394;2022-09-13T15:52:22;98640.13;;;15.97;100.00
24440;BME280;12618;54.386;18.394;2022-09-13T15:54:53;98632.77;;;15.95;100.00
24440;BME280;12618;54.386;18.394;2022-09-13T15:57:26;98634.36;;;15.92;100.00
24440;BME280;12618;54.386;18.394;2022-09-13T15:59:58;98640.58;;;15.87;100.00
24440;BME280;12618;54.386;18.394;2022-09-13T16:02:31;98645.55;;;15.86;100.00
24440;BME280;12618;54.386;18.394;2022-09-13T16:05:02;98644.93;;;15.88;100.00
24440;BME280;12618;54.386;18.394;2022-09-13T16:07:33;98644.44;;;15.89;100.00
24440;BME280;12618;54.386;18.394;2022-09-13T16:10:19;98641.91;;;15.87;100.00
24440;BME280;12618;54.386;18.394;2022-09-13T16:12:50;98646.62;;;15.89;100.00
24440;BME280;12618;54.386;18.394;2022-09-13T16:15:21;98635.62;;;15.88;100.00
24440;BME280;12618;54.386;18.394;2022-09-13T16:17:52;98630.55;;;15.85;100.00
24440;BME280;12618;54.386;18.394;2022-09-13T16:20:24;98636.00;;;15.84;100.00
24440;BME280;12618;54.386;18.394;2022-09-13T16:22:56;98644.11;;;15.82;100.00
24440;BME280;12618;54.386;18.394;2022-09-13T16:25:27;98649.43;;;15.82;100.00
24440;BME280;12618;54.386;18.394;2022-09-13T16:27:58;98650.76;;;15.82;100.00